Time;durP1;ratioP1;P1;durP2;ratioP2;P2;SDS_P1;SDS_P2;PMS_P1;PMS_P2;Temp;Humidity;BMP_temperature;BMP_pressure;BME280_temperature;BME280_humidity;BME280_pressure;Samples;Min_cycle;Max_cycle;Signal;HPM_P1;HPM_P2
2023/12/05 00:01:32;;;;;;;34.35;18.92;;;3.70;99.90;;;;;;5066979;28;20056;-72
2023/12/05 00:03:58;;;;;;;28.90;16.05;;;3.70;99.90;;;;;;5067251;28;20017;-72
2023/12/05 00:06:24;;;;;;;38.92;20.08;;;3.70;99.90;;;;;;5066879;28;20493;-71
2023/12/05 00:08:50;;;;;;;31.60;17.20;;;3.70;99.90;;;;;;5066939;28;20029;-72
2023/12/05 00:11:16;;;;;;;47.63;21.98;;;3.70;99.90;;;;;;5066656;28;20013;-71
2023/12/05 00:13:42;;;;;;;38.05;18.92;;;3.70;99.90;;;;;;5066877;28;20461;-72
2023/12/05 00:16:08;;;;;;;35.92;18.98;;;3.70;99.90;;;;;;5066628;28;20024;-71
2023/12/05 00:18:36;;;;;;;39.03;17.38;;;3.70;99.90;;;;;;5067094;28;20095;-72
2023/12/05 00:21:02;;;;;;;33.95;16.67;;;3.70;99.90;;;;;;5067014;28;20028;-72
2023/12/05 00:23:28;;;;;;;37.20;19.80;;;3.70;99.90;;;;;;5061043;28;20024;-71
2023/12/05 00:25:54;;;;;;;46.08;19.20;;;3.70;99.90;;;;;;5066684;28;20017;-72
2023/12/05 00:28:19;;;;;;;51.22;20.98;;;3.70;99.90;;;;;;5066687;28;20100;-71
2023/12/05 00:30:48;;;;;;;45.40;20.63;;;3.70;99.90;;;;;;5066602;28;20420;-72
2023/12/05 00:33:13;;;;;;;33.00;16.42;;;3.80;99.90;;;;;;5066521;28;20024;-71
2023/12/05 00:35:39;;;;;;;37.47;18.27;;;3.80;99.90;;;;;;5066441;28;20027;-72
2023/12/05 00:38:06;;;;;;;43.08;19.33;;;3.80;99.90;;;;;;5065146;28;20035;-72
2023/12/05 00:40:31;;;;;;;47.92;22.70;;;3.70;99.90;;;;;;5053814;28;20068;-71
2023/12/05 00:42:57;;;;;;;31.40;17.67;;;3.70;99.90;;;;;;5066397;28;20051;-71
2023/12/05 00:45:25;;;;;;;37.70;18.40;;;3.70;99.90;;;;;;5066598;28;20432;-71
2023/12/05 00:47:51;;;;;;;37.30;19.15;;;3.70;99.90;;;;;;5066397;28;20446;-72
2023/12/05 00:50:17;;;;;;;43.35;20.42;;;3.70;99.90;;;;;;5066832;28;20020;-72
2023/12/05 00:52:43;;;;;;;40.70;20.05;;;3.70;99.90;;;;;;5066113;28;20031;-71
2023/12/05 00:55:08;;;;;;;45.70;20.58;;;3.70;99.90;;;;;;5066974;28;20473;-72
2023/12/05 00:57:34;;;;;;;26.00;14.13;;;3.70;99.90;;;;;;5065831;28;20020;-71
2023/12/05 01:00:00;;;;;;;46.78;20.95;;;3.80;99.90;;;;;;5066454;28;20059;-71
2023/12/05 01:02:26;;;;;;;57.58;21.83;;;3.80;99.90;;;;;;5066009;28;20029;-72
2023/12/05 01:04:51;;;;;;;32.80;17.55;;;3.70;99.90;;;;;;5066608;28;20032;-71
2023/12/05 01:07:17;;;;;;;45.83;19.10;;;3.70;99.90;;;;;;5066414;28;20029;-71
2023/12/05 01:09:44;;;;;;;49.70;20.58;;;3.70;99.90;;;;;;5066280;28;20025;-72
2023/12/05 01:12:11;;;;;;;49.00;20.88;;;3.70;99.90;;;;;;5066201;28;20028;-71
2023/12/05 01:14:37;;;;;;;76.90;24.20;;;3.70;99.90;;;;;;5066259;28;20048;-71
2023/12/05 01:17:03;;;;;;;46.65;21.10;;;3.70;99.90;;;;;;5065910;28;20025;-72
2023/12/05 01:19:30;;;;;;;41.85;19.02;;;3.80;99.90;;;;;;5066175;28;20382;-72
2023/12/05 01:21:56;;;;;;;43.22;19.92;;;3.80;99.90;;;;;;5065753;28;20490;-72
2023/12/05 01:24:21;;;;;;;46.58;20.17;;;3.80;99.90;;;;;;5066133;28;20059;-72
2023/12/05 01:26:47;;;;;;;45.85;20.33;;;3.70;99.90;;;;;;5065698;28;20028;-71
2023/12/05 01:29:13;;;;;;;40.95;19.38;;;3.80;99.90;;;;;;5066138;28;20040;-71
2023/12/05 01:31:38;;;;;;;34.65;17.75;;;3.70;99.90;;;;;;5065659;28;20036;-71
2023/12/05 01:34:04;;;;;;;59.17;23.13;;;3.70;99.90;;;;;;5068057;28;20795;-71
2023/12/05 01:36:30;;;;;;;57.50;21.13;;;3.70;99.90;;;;;;5069503;28;20741;-71
2023/12/05 01:38:56;;;;;;;56.00;21.90;;;3.70;99.90;;;;;;5069847;28;20020;-72
2023/12/05 01:41:22;;;;;;;35.63;16.85;;;3.70;99.90;;;;;;5073402;28;20048;-71
2023/12/05 01:43:48;;;;;;;26.40;14.63;;;3.70;99.90;;;;;;5083601;28;20833;-72
2023/12/05 01:46:15;;;;;;;52.47;20.60;;;3.80;99.90;;;;;;5073257;28;20036;-71
2023/12/05 01:48:40;;;;;;;45.83;20.45;;;3.80;99.90;;;;;;5083978;28;20024;-71
2023/12/05 01:51:09;;;;;;;27.98;15.13;;;3.80;99.90;;;;;;5076085;28;20032;-71
2023/12/05 01:53:36;;;;;;;54.47;21.52;;;3.70;99.90;;;;;;5076457;28;20755;-72
2023/12/05 01:56:03;;;;;;;58.00;21.23;;;3.70;99.90;;;;;;5084142;28;20013;-71
2023/12/05 01:58:30;;;;;;;62.22;22.55;;;3.70;99.90;;;;;;5080969;28;20444;-71
2023/12/05 02:00:56;;;;;;;38.42;19.65;;;3.80;99.90;;;;;;5075290;28;20008;-72
2023/12/05 02:03:21;;;;;;;58.10;21.95;;;3.70;99.90;;;;;;5080265;28;20029;-72
2023/12/05 02:05:47;;;;;;;55.20;21.00;;;3.70;99.90;;;;;;5083682;28;20020;-71
2023/12/05 02:08:18;;;;;;;69.65;23.75;;;3.70;99.90;;;;;;5076626;28;20020;-71
2023/12/05 02:10:43;;;;;;;53.50;20.85;;;3.70;99.90;;;;;;5075685;28;20029;-71
2023/12/05 02:13:09;;;;;;;50.95;22.40;;;3.70;99.90;;;;;;5061281;28;20376;-72
2023/12/05 02:15:35;;;;;;;49.65;19.90;;;3.70;99.90;;;;;;5086613;28;20496;-71
2023/12/05 02:18:14;;;;;;;39.00;18.58;;;3.80;99.90;;;;;;5075068;28;20108;-72
2023/12/05 02:20:49;;;;;;;56.25;22.88;;;3.70;99.90;;;;;;5077808;28;20027;-72
2023/12/05 02:23:59;;;;;;;44.03;20.40;;;3.80;99.90;;;;;;5073806;28;20016;-71
2023/12/05 02:26:45;;;;;;;46.85;19.65;;;3.80;99.90;;;;;;5075100;28;20038;-72
2023/12/05 02:29:11;;;;;;;43.17;19.23;;;3.70;99.90;;;;;;5077416;28;20456;-72
2023/12/05 02:31:37;;;;;;;46.58;19.77;;;3.80;99.90;;;;;;5082570;28;20509;-72
2023/12/05 02:34:03;;;;;;;52.63;22.52;;;3.80;99.90;;;;;;5079285;28;20032;-72
2023/12/05 02:36:46;;;;;;;45.08;18.95;;;3.80;99.90;;;;;;5074667;28;20056;-71
2023/12/05 02:39:19;;;;;;;57.53;22.15;;;3.80;99.90;;;;;;5083196;28;20115;-71
2023/12/05 02:41:48;;;;;;;41.20;17.55;;;3.80;99.90;;;;;;5071567;28;20100;-71
2023/12/05 02:44:16;;;;;;;43.40;19.38;;;3.80;99.90;;;;;;5069386;28;20035;-71
2023/12/05 02:46:43;;;;;;;66.50;22.67;;;3.80;99.90;;;;;;5071235;28;20029;-71
2023/12/05 02:49:10;;;;;;;51.63;20.40;;;3.70;99.90;;;;;;5083399;28;20111;-71
2023/12/05 02:51:36;;;;;;;56.50;23.65;;;3.80;99.90;;;;;;5079642;28;20025;-71
2023/12/05 02:54:06;;;;;;;41.38;20.70;;;3.80;99.90;;;;;;5074303;28;20037;-71
2023/12/05 02:56:33;;;;;;;51.22;20.63;;;3.80;99.90;;;;;;5079145;28;20624;-71
2023/12/05 02:58:59;;;;;;;53.85;20.27;;;3.80;99.90;;;;;;5082870;28;20058;-71
2023/12/05 03:01:24;;;;;;;65.55;22.58;;;3.80;99.90;;;;;;5075536;28;20051;-71
2023/12/05 03:03:50;;;;;;;58.10;20.80;;;3.80;99.90;;;;;;5074857;28;20074;-72
2023/12/05 03:06:16;;;;;;;45.05;19.15;;;3.80;99.90;;;;;;5082527;28;20028;-72
2023/12/05 03:08:41;;;;;;;44.72;19.40;;;3.80;99.90;;;;;;5068199;28;20063;-71
2023/12/05 03:11:07;;;;;;;71.55;23.85;;;3.80;99.90;;;;;;5082632;28;20012;-71
2023/12/05 03:13:32;;;;;;;61.05;22.38;;;3.80;99.90;;;;;;5077278;28;20423;-72
2023/12/05 03:15:58;;;;;;;54.63;21.27;;;3.80;99.90;;;;;;5074268;28;20445;-71
2023/12/05 03:18:24;;;;;;;67.82;24.27;;;3.80;99.90;;;;;;5080743;28;20024;-72
2023/12/05 03:20:50;;;;;;;48.88;20.35;;;3.80;99.90;;;;;;5081614;28;20008;-71
2023/12/05 03:23:18;;;;;;;46.65;18.23;;;3.80;99.90;;;;;;5073934;28;20023;-72
2023/12/05 03:25:44;;;;;;;52.72;19.77;;;3.80;99.90;;;;;;5076612;28;20021;-72
2023/12/05 03:28:10;;;;;;;51.00;19.33;;;3.80;99.90;;;;;;5081563;28;20035;-71
2023/12/05 03:30:35;;;;;;;61.33;21.10;;;3.80;99.90;;;;;;5077642;28;20030;-72
2023/12/05 03:33:01;;;;;;;76.00;21.17;;;3.80;99.90;;;;;;5073215;28;20039;-71
2023/12/05 03:35:27;;;;;;;67.13;21.98;;;3.80;99.90;;;;;;5080565;28;20478;-71
2023/12/05 03:37:52;;;;;;;81.75;23.17;;;3.80;99.90;;;;;;5075328;28;20031;-72
2023/12/05 03:40:18;;;;;;;60.08;20.65;;;3.80;99.90;;;;;;5081910;28;20037;-71
2023/12/05 03:42:43;;;;;;;57.80;21.52;;;3.80;99.90;;;;;;5078737;28;20511;-72
2023/12/05 03:45:09;;;;;;;59.20;20.73;;;3.80;99.90;;;;;;5073517;28;20016;-71
2023/12/05 03:47:35;;;;;;;63.53;20.85;;;3.80;99.90;;;;;;5073155;28;20031;-72
2023/12/05 03:50:00;;;;;;;45.22;18.70;;;3.70;99.90;;;;;;5076256;28;20028;-72
2023/12/05 03:52:26;;;;;;;54.95;20.63;;;3.80;99.90;;;;;;5081457;28;20447;-71
2023/12/05 03:54:51;;;;;;;73.32;23.17;;;3.70;99.90;;;;;;5076863;28;20039;-71
2023/12/05 03:57:17;;;;;;;60.08;19.38;;;3.70;99.90;;;;;;5071647;28;20140;-72
2023/12/05 03:59:44;;;;;;;61.83;20.90;;;3.70;99.90;;;;;;5074702;28;20367;-71
2023/12/05 04:02:10;;;;;;;67.28;21.95;;;3.70;99.90;;;;;;5073456;28;20047;-71
2023/12/05 04:04:36;;;;;;;60.13;20.75;;;3.70;99.90;;;;;;5081198;28;20016;-72
2023/12/05 04:07:01;;;;;;;59.55;21.25;;;3.70;99.90;;;;;;5078813;28;20043;-72
2023/12/05 04:09:27;;;;;;;58.03;20.02;;;3.70;99.90;;;;;;5073368;28;20055;-72
2023/12/05 04:11:52;;;;;;;64.60;21.70;;;3.70;99.90;;;;;;5077440;28;20553;-72
2023/12/05 04:14:18;;;;;;;58.95;19.98;;;3.70;99.90;;;;;;5081505;28;20036;-71
2023/12/05 04:16:44;;;;;;;48.95;18.85;;;3.70;99.90;;;;;;5074201;28;20039;-71
2023/12/05 04:19:09;;;;;;;75.05;23.17;;;3.70;99.90;;;;;;5073574;28;20102;-72
2023/12/05 04:21:35;;;;;;;74.07;22.85;;;3.70;99.90;;;;;;5081070;28;20024;-71
2023/12/05 04:24:00;;;;;;;50.65;18.70;;;3.70;99.90;;;;;;5078178;28;20034;-71
2023/12/05 04:26:26;;;;;;;64.72;20.75;;;3.70;99.90;;;;;;5072726;28;20038;-71
2023/12/05 04:28:52;;;;;;;46.35;18.38;;;3.70;99.90;;;;;;5077690;28;20064;-71
2023/12/05 04:31:18;;;;;;;83.63;22.45;;;3.70;99.90;;;;;;5080880;28;20850;-71
2023/12/05 04:33:44;;;;;;;60.58;20.88;;;3.70;99.90;;;;;;5073983;28;20106;-71
2023/12/05 04:36:10;;;;;;;58.75;20.67;;;3.70;99.90;;;;;;5073639;28;20096;-72
2023/12/05 04:38:37;;;;;;;65.82;21.25;;;3.70;99.90;;;;;;5079805;28;20032;-71
2023/12/05 04:41:03;;;;;;;73.18;21.67;;;3.70;99.90;;;;;;5075165;28;20054;-71
2023/12/05 04:43:30;;;;;;;52.50;21.25;;;3.70;99.90;;;;;;5070020;28;20020;-71
2023/12/05 04:45:56;;;;;;;72.05;22.02;;;3.70;99.90;;;;;;5083105;28;20533;-71
2023/12/05 04:48:22;;;;;;;51.30;20.33;;;3.70;99.90;;;;;;5064458;28;20108;-71
2023/12/05 04:50:48;;;;;;;71.43;21.75;;;3.70;99.90;;;;;;5068626;28;20452;-71
2023/12/05 04:53:13;;;;;;;80.78;22.25;;;3.70;99.90;;;;;;5076493;28;20028;-71
2023/12/05 04:55:39;;;;;;;74.05;22.83;;;3.70;99.90;;;;;;5080841;28;20035;-71
2023/12/05 04:58:05;;;;;;;59.88;21.33;;;3.70;99.90;;;;;;5074398;28;20040;-71
2023/12/05 05:00:31;;;;;;;91.13;23.00;;;3.70;99.90;;;;;;5072876;28;20028;-71
2023/12/05 05:02:57;;;;;;;75.35;22.30;;;3.70;99.90;;;;;;5058265;28;20066;-71
2023/12/05 05:05:23;;;;;;;79.43;23.77;;;3.70;99.90;;;;;;5074615;28;20033;-71
2023/12/05 05:07:48;;;;;;;63.38;21.40;;;3.70;99.90;;;;;;5066280;28;20036;-71
2023/12/05 05:10:14;;;;;;;72.10;22.42;;;3.70;99.90;;;;;;5080430;28;20496;-71
2023/12/05 05:12:40;;;;;;;66.57;21.65;;;3.70;99.90;;;;;;5076183;28;20035;-72
2023/12/05 05:15:06;;;;;;;68.75;20.90;;;3.70;99.90;;;;;;5083169;28;20027;-72
2023/12/05 05:17:32;;;;;;;79.30;22.58;;;3.70;99.90;;;;;;5084110;28;20080;-71
2023/12/05 05:19:57;;;;;;;62.58;20.42;;;3.70;99.90;;;;;;5076577;28;20016;-72
2023/12/05 05:22:23;;;;;;;85.85;24.25;;;3.70;99.90;;;;;;5078135;28;20108;-71
2023/12/05 05:24:48;;;;;;;86.55;23.13;;;3.70;99.90;;;;;;5084558;28;20016;-72
2023/12/05 05:27:14;;;;;;;78.20;21.75;;;3.70;99.90;;;;;;5079900;28;20099;-72
2023/12/05 05:29:40;;;;;;;72.90;22.33;;;3.70;99.90;;;;;;5076022;28;20498;-72
2023/12/05 05:32:05;;;;;;;78.18;21.23;;;3.70;99.90;;;;;;5082212;28;20028;-72
2023/12/05 05:34:31;;;;;;;86.40;23.38;;;3.70;99.90;;;;;;5083952;28;20102;-71
2023/12/05 05:36:57;;;;;;;80.75;21.75;;;3.70;99.90;;;;;;5076029;28;20028;-72
2023/12/05 05:39:22;;;;;;;79.00;21.92;;;3.70;99.90;;;;;;5083992;28;20099;-72
2023/12/05 05:41:48;;;;;;;77.07;23.15;;;3.70;99.90;;;;;;5075939;28;20012;-72
2023/12/05 05:44:14;;;;;;;50.67;20.38;;;3.70;99.90;;;;;;5080012;28;20028;-71
2023/12/05 05:46:39;;;;;;;90.20;22.40;;;3.80;99.90;;;;;;5073672;28;20029;-71
2023/12/05 05:49:05;;;;;;;70.78;22.00;;;3.80;99.90;;;;;;5083738;28;20200;-72
2023/12/05 05:51:30;;;;;;;78.03;22.55;;;3.80;99.90;;;;;;5079982;28;20465;-72
2023/12/05 05:53:57;;;;;;;65.78;20.90;;;3.80;99.90;;;;;;5075184;28;20405;-71
2023/12/05 05:56:23;;;;;;;63.92;20.58;;;3.80;99.90;;;;;;5081892;28;20036;-72
2023/12/05 05:58:49;;;;;;;48.78;17.83;;;3.80;99.90;;;;;;5083126;28;20027;-72
2023/12/05 06:01:15;;;;;;;83.78;22.92;;;3.80;99.90;;;;;;5075572;28;20065;-72
2023/12/05 06:03:41;;;;;;;74.10;20.50;;;3.80;99.90;;;;;;5077432;28;20020;-72
2023/12/05 06:06:07;;;;;;;80.43;21.25;;;3.70;99.90;;;;;;5073288;28;20492;-71
2023/12/05 06:08:33;;;;;;;79.60;21.55;;;3.80;99.90;;;;;;5079038;28;20589;-71
2023/12/05 06:10:58;;;;;;;78.90;21.60;;;3.80;99.90;;;;;;5083913;28;20111;-72
2023/12/05 06:13:24;;;;;;;75.90;21.25;;;3.80;99.90;;;;;;5077152;28;20056;-71
2023/12/05 06:15:49;;;;;;;51.22;18.70;;;3.80;99.90;;;;;;5075649;28;20028;-72
2023/12/05 06:18:15;;;;;;;66.50;19.83;;;3.80;99.90;;;;;;5083048;28;20077;-72
2023/12/05 06:20:44;;;;;;;59.72;19.77;;;3.80;99.90;;;;;;5079803;28;20055;-72
2023/12/05 06:23:10;;;;;;;62.83;20.17;;;3.80;99.90;;;;;;5074958;28;20518;-72
2023/12/05 06:25:36;;;;;;;52.95;19.60;;;3.80;99.90;;;;;;5078722;28;20024;-72
2023/12/05 06:28:01;;;;;;;69.32;20.60;;;3.80;99.90;;;;;;5083095;28;20484;-72
2023/12/05 06:30:27;;;;;;;54.33;19.05;;;3.80;99.90;;;;;;5077450;28;20028;-71
2023/12/05 06:32:53;;;;;;;45.03;17.30;;;3.80;99.90;;;;;;5056051;28;20059;-72
2023/12/05 06:35:18;;;;;;;52.95;18.80;;;3.80;99.90;;;;;;5075585;28;20107;-72
2023/12/05 06:37:44;;;;;;;60.40;20.65;;;3.80;99.90;;;;;;5076591;28;20024;-71
2023/12/05 06:40:10;;;;;;;66.03;20.98;;;3.80;99.90;;;;;;5083087;28;20109;-72
2023/12/05 06:42:37;;;;;;;48.38;18.92;;;3.80;99.90;;;;;;5079100;28;20031;-71
2023/12/05 06:45:03;;;;;;;60.83;19.63;;;3.80;99.90;;;;;;5074650;28;20103;-72
2023/12/05 06:47:30;;;;;;;58.67;19.27;;;3.80;99.90;;;;;;5074534;28;20020;-71
2023/12/05 06:49:59;;;;;;;58.95;19.10;;;3.80;99.90;;;;;;5078277;28;20023;-72
2023/12/05 06:52:25;;;;;;;71.00;19.85;;;3.80;99.90;;;;;;5082822;28;20020;-72
2023/12/05 06:54:51;;;;;;;69.97;20.05;;;3.80;99.90;;;;;;5068413;28;20808;-72
2023/12/05 06:57:17;;;;;;;80.05;21.17;;;3.80;99.90;;;;;;5082659;28;20090;-72
2023/12/05 06:59:42;;;;;;;54.65;19.80;;;3.80;99.90;;;;;;5075192;28;20115;-72
2023/12/05 07:02:08;;;;;;;65.10;20.05;;;3.80;99.90;;;;;;5075018;28;20150;-71
2023/12/05 07:04:34;;;;;;;48.90;18.35;;;3.80;99.90;;;;;;5071903;28;20036;-71
2023/12/05 07:07:00;;;;;;;55.10;19.08;;;3.80;99.90;;;;;;5068095;28;20032;-71
2023/12/05 07:09:26;;;;;;;70.85;20.42;;;3.80;99.90;;;;;;5082573;28;20017;-72
2023/12/05 07:11:51;;;;;;;53.05;20.17;;;3.90;99.90;;;;;;5077485;28;20472;-72
2023/12/05 07:14:17;;;;;;;63.60;20.42;;;3.90;99.90;;;;;;5074014;28;20033;-72
2023/12/05 07:16:45;;;;;;;66.13;20.02;;;3.90;99.90;;;;;;5080866;28;20043;-72
2023/12/05 07:19:11;;;;;;;52.55;19.75;;;3.90;99.90;;;;;;5067387;28;20020;-72
2023/12/05 07:21:36;;;;;;;49.00;20.63;;;3.90;99.90;;;;;;5050089;28;20039;-71
2023/12/05 07:24:02;;;;;;;71.45;20.75;;;3.90;99.90;;;;;;5075821;28;20029;-71
2023/12/05 07:26:28;;;;;;;60.92;19.05;;;3.90;99.90;;;;;;5075498;28;20025;-72
2023/12/05 07:28:53;;;;;;;48.28;19.00;;;3.90;99.90;;;;;;5067384;28;20859;-71
2023/12/05 07:31:20;;;;;;;64.22;20.33;;;3.90;99.90;;;;;;5067735;28;20013;-71
2023/12/05 07:33:46;;;;;;;54.90;20.25;;;3.90;99.90;;;;;;5065126;28;20035;-72
2023/12/05 07:36:12;;;;;;;76.03;20.67;;;3.90;99.90;;;;;;5065843;28;20024;-72
2023/12/05 07:38:38;;;;;;;68.57;21.45;;;3.90;99.90;;;;;;5081146;28;20035;-72
2023/12/05 07:41:04;;;;;;;103.00;24.67;;;3.90;99.90;;;;;;5070717;28;20049;-72
2023/12/05 07:43:30;;;;;;;65.38;20.20;;;3.90;99.90;;;;;;5072141;28;20028;-71
2023/12/05 07:45:56;;;;;;;74.20;21.20;;;3.90;99.90;;;;;;5078154;28;20678;-72
2023/12/05 07:48:21;;;;;;;65.50;21.02;;;3.90;99.90;;;;;;5063947;28;20028;-72
2023/12/05 07:50:47;;;;;;;68.90;21.40;;;3.90;99.90;;;;;;5070694;28;20025;-71
2023/12/05 07:53:13;;;;;;;85.30;22.60;;;3.90;99.90;;;;;;5066809;28;20489;-72
2023/12/05 07:55:38;;;;;;;58.13;20.65;;;3.90;99.90;;;;;;5074639;28;20032;-72
2023/12/05 07:58:04;;;;;;;77.93;20.40;;;3.90;99.90;;;;;;5066211;28;20024;-72
2023/12/05 08:00:30;;;;;;;60.88;19.10;;;3.90;99.90;;;;;;5066850;28;20025;-71
2023/12/05 08:02:56;;;;;;;66.32;20.58;;;3.90;99.90;;;;;;5066103;28;20553;-71
2023/12/05 08:05:22;;;;;;;53.50;21.42;;;3.90;99.90;;;;;;5048566;28;20439;-71
2023/12/05 08:07:47;;;;;;;81.60;23.45;;;3.90;99.90;;;;;;5080225;28;20066;-72
2023/12/05 08:10:13;;;;;;;105.32;25.83;;;3.90;99.90;;;;;;5075984;28;20486;-71
2023/12/05 08:12:38;;;;;;;83.57;23.75;;;3.90;99.90;;;;;;5073184;28;20029;-72
2023/12/05 08:15:05;;;;;;;79.93;23.33;;;3.90;99.90;;;;;;5079285;28;20504;-71
2023/12/05 08:17:30;;;;;;;62.05;22.77;;;3.90;99.90;;;;;;5079141;28;20026;-71
2023/12/05 08:19:56;;;;;;;84.55;24.92;;;3.90;99.90;;;;;;5047244;28;20035;-71
2023/12/05 08:22:22;;;;;;;87.90;24.48;;;3.90;99.90;;;;;;5077543;28;20026;-71
2023/12/05 08:24:49;;;;;;;88.43;23.80;;;3.90;99.90;;;;;;5071316;28;20444;-71
2023/12/05 08:27:15;;;;;;;75.72;23.33;;;3.90;99.90;;;;;;5075195;28;20119;-72
2023/12/05 08:29:41;;;;;;;77.22;24.13;;;3.90;99.90;;;;;;5079231;28;20106;-71
2023/12/05 08:32:07;;;;;;;112.00;27.20;;;3.90;99.90;;;;;;5074230;28;20108;-71
2023/12/05 08:34:33;;;;;;;70.40;21.27;;;3.90;99.90;;;;;;5072512;28;20033;-71
2023/12/05 08:36:59;;;;;;;80.65;23.00;;;3.90;99.90;;;;;;5080632;28;20031;-71
2023/12/05 08:39:25;;;;;;;79.38;23.33;;;3.90;99.90;;;;;;5078484;28;20024;-71
2023/12/05 08:41:51;;;;;;;95.20;25.85;;;3.90;99.90;;;;;;5072850;28;20020;-70
2023/12/05 08:44:18;;;;;;;94.43;25.17;;;4.00;99.90;;;;;;5061638;28;20044;-71
2023/12/05 08:46:44;;;;;;;99.07;24.77;;;4.00;99.90;;;;;;5066433;28;20291;-70
2023/12/05 08:49:09;;;;;;;114.20;26.92;;;4.00;99.90;;;;;;5066301;28;20035;-71
2023/12/05 08:51:35;;;;;;;89.85;23.50;;;4.00;99.90;;;;;;5066672;28;20127;-71
2023/12/05 08:54:01;;;;;;;83.43;23.75;;;4.00;99.90;;;;;;5068163;28;20456;-71
2023/12/05 08:56:26;;;;;;;80.20;24.30;;;4.00;99.90;;;;;;5075778;28;20076;-71
2023/12/05 08:58:52;;;;;;;101.15;25.38;;;4.00;99.90;;;;;;5072360;28;20080;-70
2023/12/05 09:01:17;;;;;;;81.30;21.45;;;4.00;99.90;;;;;;5066786;28;20021;-71
2023/12/05 09:03:43;;;;;;;55.85;21.15;;;4.00;99.90;;;;;;5065884;28;20035;-70
2023/12/05 09:06:09;;;;;;;78.30;21.70;;;4.10;99.90;;;;;;5060869;28;20021;-71
2023/12/05 09:08:35;;;;;;;80.00;22.00;;;4.00;99.90;;;;;;5065677;28;20028;-71
2023/12/05 09:11:00;;;;;;;77.75;22.45;;;4.00;99.90;;;;;;5060574;28;20021;-71
2023/12/05 09:13:26;;;;;;;65.95;20.83;;;4.10;99.90;;;;;;5078112;28;20040;-71
2023/12/05 09:15:52;;;;;;;71.82;21.27;;;4.10;99.90;;;;;;5080596;28;20031;-71
2023/12/05 09:18:17;;;;;;;69.90;21.63;;;4.10;99.90;;;;;;5067153;28;20025;-70
2023/12/05 09:20:43;;;;;;;60.45;21.77;;;4.10;99.90;;;;;;5066170;28;20051;-71
2023/12/05 09:23:11;;;;;;;68.95;20.52;;;4.10;99.90;;;;;;5065923;28;20474;-71
2023/12/05 09:25:36;;;;;;;63.03;20.27;;;4.10;99.90;;;;;;5076196;28;20024;-71
2023/12/05 09:28:02;;;;;;;91.22;22.17;;;4.10;99.90;;;;;;5068092;28;20595;-71
2023/12/05 09:30:28;;;;;;;58.92;20.02;;;4.10;99.90;;;;;;5059458;28;20059;-71
2023/12/05 09:32:54;;;;;;;93.93;22.67;;;4.10;99.90;;;;;;5070639;28;20017;-71
2023/12/05 09:35:19;;;;;;;63.95;19.55;;;4.10;99.90;;;;;;5080041;28;20024;-70
2023/12/05 09:37:45;;;;;;;85.43;21.20;;;4.10;99.90;;;;;;5072905;28;20017;-71
2023/12/05 09:40:11;;;;;;;77.07;20.38;;;4.10;99.90;;;;;;5079948;28;20044;-72
2023/12/05 09:42:40;;;;;;;60.10;21.33;;;4.10;99.90;;;;;;5076322;28;20024;-71
2023/12/05 09:45:10;;;;;;;51.85;19.88;;;4.10;99.90;;;;;;5072302;28;20020;-71
2023/12/05 09:47:36;;;;;;;75.68;20.25;;;4.10;99.90;;;;;;5071377;28;20024;-71
2023/12/05 09:50:03;;;;;;;82.45;22.40;;;4.10;99.90;;;;;;5074424;28;20067;-71
2023/12/05 09:52:29;;;;;;;59.58;19.52;;;4.10;99.90;;;;;;5080151;28;20024;-71
2023/12/05 09:54:57;;;;;;;71.00;20.60;;;4.10;99.90;;;;;;5076049;28;20024;-71
2023/12/05 09:57:23;;;;;;;53.05;19.42;;;4.10;99.90;;;;;;5074079;28;20451;-71
2023/12/05 09:59:49;;;;;;;48.60;19.42;;;4.10;99.90;;;;;;5079832;28;20048;-71
2023/12/05 10:02:18;;;;;;;78.65;20.58;;;4.20;99.90;;;;;;5082237;28;20611;-71
2023/12/05 10:04:44;;;;;;;67.32;20.67;;;4.20;99.90;;;;;;5060455;28;20676;-70
2023/12/05 10:07:14;;;;;;;77.18;21.50;;;4.20;99.90;;;;;;5075098;28;20024;-70
2023/12/05 10:09:43;;;;;;;60.85;18.88;;;4.20;99.90;;;;;;5082909;28;20039;-71
2023/12/05 10:12:10;;;;;;;51.83;19.08;;;4.20;99.90;;;;;;5081163;28;20111;-71
2023/12/05 10:14:37;;;;;;;54.58;19.75;;;4.20;99.90;;;;;;5074740;28;20069;-71
2023/12/05 10:17:03;;;;;;;58.33;18.80;;;4.20;99.90;;;;;;5079154;28;20060;-71
2023/12/05 10:19:30;;;;;;;54.10;18.98;;;4.20;99.90;;;;;;5083118;28;20024;-70
2023/12/05 10:21:57;;;;;;;69.07;21.58;;;4.20;99.90;;;;;;5077444;28;20565;-71
2023/12/05 10:24:23;;;;;;;88.53;21.85;;;4.20;99.90;;;;;;5074902;28;20024;-71
2023/12/05 10:26:49;;;;;;;81.65;20.45;;;4.20;99.90;;;;;;5082757;28;20485;-71
2023/12/05 10:29:17;;;;;;;75.75;20.92;;;4.20;99.90;;;;;;5081394;28;20031;-71
2023/12/05 10:31:43;;;;;;;67.47;20.52;;;4.20;99.90;;;;;;5075032;28;20084;-71
2023/12/05 10:34:09;;;;;;;79.63;20.85;;;4.20;99.90;;;;;;5078124;28;20032;-71
2023/12/05 10:36:36;;;;;;;57.05;18.75;;;4.20;99.90;;;;;;5070526;28;20025;-71
2023/12/05 10:39:03;;;;;;;67.70;19.23;;;4.20;99.90;;;;;;5083052;28;20020;-71
2023/12/05 10:41:29;;;;;;;61.58;19.27;;;4.20;99.90;;;;;;5073166;28;20581;-71
2023/12/05 10:43:56;;;;;;;58.28;20.27;;;4.20;99.90;;;;;;5070308;28;20473;-71
2023/12/05 10:46:28;;;;;;;68.93;20.42;;;4.20;99.90;;;;;;5069278;28;20021;-71
2023/12/05 10:48:56;;;;;;;68.82;20.90;;;4.20;99.90;;;;;;5077329;28;20032;-72
2023/12/05 10:51:28;;;;;;;75.70;22.10;;;4.20;99.90;;;;;;5068527;28;20035;-71
2023/12/05 10:53:55;;;;;;;54.00;20.10;;;4.20;99.90;;;;;;5075272;28;20576;-71
2023/12/05 10:56:21;;;;;;;63.35;20.15;;;4.20;99.90;;;;;;5068879;28;20025;-70
2023/12/05 10:58:47;;;;;;;73.00;21.75;;;4.20;99.90;;;;;;5068112;28;20116;-69
2023/12/05 11:01:14;;;;;;;64.68;20.88;;;4.20;99.90;;;;;;5070997;28;20045;-71
2023/12/05 11:03:41;;;;;;;60.25;21.05;;;4.20;99.90;;;;;;5068117;28;20082;-71
2023/12/05 11:06:07;;;;;;;75.93;21.65;;;4.20;99.90;;;;;;5067871;28;20027;-72
2023/12/05 11:08:35;;;;;;;83.35;22.45;;;4.20;99.90;;;;;;5077698;28;20051;-71
2023/12/05 11:11:04;;;;;;;85.70;21.90;;;4.20;99.90;;;;;;5074273;28;20020;-71
2023/12/05 11:13:34;;;;;;;70.18;20.73;;;4.20;99.90;;;;;;5079209;28;20485;-71
2023/12/05 11:16:08;;;;;;;63.55;21.33;;;4.20;99.90;;;;;;5082492;28;20086;-72
2023/12/05 11:18:43;;;;;;;62.85;20.88;;;4.20;99.90;;;;;;5075744;28;20024;-71
2023/12/05 11:21:43;;;;;;;72.28;21.73;;;4.20;99.90;;;;;;5074089;28;20028;-70
2023/12/05 11:24:38;;;;;;;97.35;23.40;;;4.20;99.90;;;;;;5075175;28;20017;-72
2023/12/05 11:27:13;;;;;;;58.00;21.85;;;4.20;99.90;;;;;;5064920;28;20035;-72
2023/12/05 11:30:04;;;;;;;79.50;22.77;;;4.20;99.90;;;;;;5073244;28;20489;-71
2023/12/05 11:32:54;;;;;;;72.28;21.63;;;4.20;99.90;;;;;;5077028;28;20121;-71
2023/12/05 11:35:28;;;;;;;66.97;21.00;;;4.20;99.90;;;;;;5060897;28;20023;-70
2023/12/05 11:38:15;;;;;;;60.05;20.17;;;4.20;99.90;;;;;;5073118;28;20024;-71
2023/12/05 11:40:41;;;;;;;102.55;23.63;;;4.20;99.90;;;;;;5039615;28;20477;-71
2023/12/05 11:43:11;;;;;;;74.57;22.88;;;4.20;99.90;;;;;;5047343;28;20105;-70
2023/12/05 11:45:41;;;;;;;96.45;24.00;;;4.20;99.90;;;;;;5047556;28;20092;-71
2023/12/05 11:48:09;;;;;;;85.28;23.00;;;4.20;99.90;;;;;;5046944;28;20025;-71
2023/12/05 11:50:47;;;;;;;102.70;24.63;;;4.20;99.90;;;;;;5046971;28;20025;-71
2023/12/05 11:53:22;;;;;;;95.07;23.08;;;4.20;99.90;;;;;;5047114;28;20045;-71
2023/12/05 11:55:48;;;;;;;88.05;23.75;;;4.20;99.90;;;;;;5046890;28;20441;-71
2023/12/05 11:58:33;;;;;;;62.85;19.63;;;4.20;99.90;;;;;;5046877;28;20075;-71
2023/12/05 12:01:03;;;;;;;68.45;20.05;;;4.20;99.90;;;;;;5047062;28;20021;-71
2023/12/05 12:03:48;;;;;;;58.83;19.02;;;4.20;99.90;;;;;;5046794;28;20060;-71
2023/12/05 12:06:19;;;;;;;62.55;18.45;;;4.20;99.90;;;;;;5045301;28;20103;-70
2023/12/05 12:08:48;;;;;;;87.93;20.52;;;4.20;99.90;;;;;;5046766;28;20025;-71
2023/12/05 12:11:15;;;;;;;69.97;19.63;;;4.20;99.90;;;;;;5046895;28;20024;-71
2023/12/05 12:13:40;;;;;;;69.80;19.35;;;4.20;99.90;;;;;;5046364;28;20031;-71
2023/12/05 12:16:06;;;;;;;49.03;18.50;;;4.20;99.90;;;;;;5045059;28;20029;-71
2023/12/05 12:18:32;;;;;;;52.20;18.63;;;4.20;99.90;;;;;;5045195;28;20041;-71
2023/12/05 12:20:59;;;;;;;54.33;17.67;;;4.20;99.90;;;;;;5046359;28;20032;-71
2023/12/05 12:23:25;;;;;;;58.80;19.05;;;4.20;99.90;;;;;;5046435;28;20112;-70
2023/12/05 12:25:53;;;;;;;53.65;19.05;;;4.20;99.90;;;;;;5046348;28;20329;-71
2023/12/05 12:28:28;;;;;;;80.05;20.23;;;4.20;99.90;;;;;;5048254;28;20390;-71
2023/12/05 12:31:01;;;;;;;91.10;22.55;;;4.20;99.90;;;;;;5029504;28;20025;-70
2023/12/05 12:33:36;;;;;;;83.20;21.58;;;4.20;99.90;;;;;;5030284;28;20024;-71
2023/12/05 12:36:03;;;;;;;89.72;24.85;;;4.20;99.90;;;;;;5046203;28;20021;-71